sensor_id;sensor_type;location;lat;lon;timestamp;pressure;altitude;pressure_sealevel;temperature;humidity
19783;BME280;10051;40.294;-3.754;2022-08-21T00:00:53;94303.75;;;28.17;21.79
19783;BME280;10051;40.294;-3.754;2022-08-21T00:03:18;94306.06;;;28.30;21.68
19783;BME280;10051;40.294;-3.754;2022-08-21T00:05:48;94279.84;;;28.12;21.79
19783;BME280;10051;40.294;-3.754;2022-08-21T00:08:15;94210.00;;;27.64;21.36
19783;BME280;10051;40.294;-3.754;2022-08-21T00:10:41;94249.75;;;27.88;21.78
19783;BME280;10051;40.294;-3.754;2022-08-21T00:13:07;94304.13;;;28.27;22.04
19783;BME280;10051;40.294;-3.754;2022-08-21T00:15:35;94326.91;;;28.47;21.79
19783;BME280;10051;40.294;-3.754;2022-08-21T00:18:02;94305.28;;;28.26;22.07
19783;BME280;10051;40.294;-3.754;2022-08-21T00:20:29;94322.25;;;28.44;21.83
19783;BME280;10051;40.294;-3.754;2022-08-21T00:22:55;94339.22;;;28.48;22.11
19783;BME280;10051;40.294;-3.754;2022-08-21T00:25:20;94275.56;;;28.11;22.03
19783;BME280;10051;40.294;-3.754;2022-08-21T00:27:46;94196.53;;;27.49;22.45
19783;BME280;10051;40.294;-3.754;2022-08-21T00:30:14;94272.91;;;27.97;22.52
19783;BME280;10051;40.294;-3.754;2022-08-21T00:32:41;94232.81;;;27.55;22.66
19783;BME280;10051;40.294;-3.754;2022-08-21T00:35:10;94301.81;;;27.89;22.82
19783;BME280;10051;40.294;-3.754;2022-08-21T00:37:38;94233.56;;;27.49;22.38
19783;BME280;10051;40.294;-3.754;2022-08-21T00:40:06;94166.44;;;27.04;22.41
19783;BME280;10051;40.294;-3.754;2022-08-21T00:42:32;94287.94;;;27.87;22.20
19783;BME280;10051;40.294;-3.754;2022-08-21T00:44:57;94308.38;;;28.06;22.16
19783;BME280;10051;40.294;-3.754;2022-08-21T00:47:23;94169.53;;;27.06;22.58
19783;BME280;10051;40.294;-3.754;2022-08-21T00:49:48;94226.63;;;27.58;22.11
19783;BME280;10051;40.294;-3.754;2022-08-21T00:52:18;94124.81;;;26.90;22.67
19783;BME280;10051;40.294;-3.754;2022-08-21T00:54:45;94261.34;;;27.74;22.48
19783;BME280;10051;40.294;-3.754;2022-08-21T00:57:26;94216.56;;;27.37;22.77
19783;BME280;10051;40.294;-3.754;2022-08-21T00:59:55;94234.34;;;27.49;23.07
19783;BME280;10051;40.294;-3.754;2022-08-21T01:02:21;94275.59;;;27.68;23.41
19783;BME280;10051;40.294;-3.754;2022-08-21T01:04:47;94250.88;;;27.40;23.29
19783;BME280;10051;40.294;-3.754;2022-08-21T01:07:13;94270.56;;;27.63;22.84
19783;BME280;10051;40.294;-3.754;2022-08-21T01:09:40;94269.03;;;27.61;23.03
19783;BME280;10051;40.294;-3.754;2022-08-21T01:12:06;94289.88;;;27.79;23.02
19783;BME280;10051;40.294;-3.754;2022-08-21T01:14:31;94253.25;;;27.49;23.21
19783;BME280;10051;40.294;-3.754;2022-08-21T01:16:59;94181.84;;;26.92;23.14
19783;BME280;10051;40.294;-3.754;2022-08-21T01:19:26;94286.03;;;27.62;23.12
19783;BME280;10051;40.294;-3.754;2022-08-21T01:21:52;94261.72;;;27.58;22.42
19783;BME280;10051;40.294;-3.754;2022-08-21T01:24:19;94266.34;;;27.54;22.46
19783;BME280;10051;40.294;-3.754;2022-08-21T01:26:45;94252.81;;;27.47;22.28
19783;BME280;10051;40.294;-3.754;2022-08-21T01:29:41;94138.63;;;26.78;22.54
19783;BME280;10051;40.294;-3.754;2022-08-21T01:32:08;94274.44;;;27.69;22.61
19783;BME280;10051;40.294;-3.754;2022-08-21T01:34:36;94276.75;;;27.67;22.92
19783;BME280;10051;40.294;-3.754;2022-08-21T01:37:02;94276.00;;;27.77;22.76
19783;BME280;10051;40.294;-3.754;2022-08-21T01:39:28;94274.44;;;27.76;23.20
19783;BME280;10051;40.294;-3.754;2022-08-21T01:41:54;94214.25;;;27.25;23.14
19783;BME280;10051;40.294;-3.754;2022-08-21T01:44:23;94249.78;;;27.59;23.13
19783;BME280;10051;40.294;-3.754;2022-08-21T01:46:49;94140.16;;;26.79;23.32
19783;BME280;10051;40.294;-3.754;2022-08-21T01:49:15;94217.31;;;27.20;22.99
19783;BME280;10051;40.294;-3.754;2022-08-21T01:51:41;94215.78;;;27.15;23.38
19783;BME280;10051;40.294;-3.754;2022-08-21T01:54:07;94275.97;;;27.63;23.30
19783;BME280;10051;40.294;-3.754;2022-08-21T01:56:42;94263.22;;;27.38;23.63
19783;BME280;10051;40.294;-3.754;2022-08-21T01:59:09;94268.66;;;27.56;23.38
19783;BME280;10051;40.294;-3.754;2022-08-21T02:01:35;94241.22;;;27.28;23.96
19783;BME280;10051;40.294;-3.754;2022-08-21T02:04:00;94220.78;;;27.09;24.18
19783;BME280;10051;40.294;-3.754;2022-08-21T02:06:26;94213.47;;;27.10;24.00
19783;BME280;10051;40.294;-3.754;2022-08-21T02:08:52;94279.84;;;27.51;23.85
19783;BME280;10051;40.294;-3.754;2022-08-21T02:11:18;94292.97;;;27.52;23.34
19783;BME280;10051;40.294;-3.754;2022-08-21T02:13:43;94291.81;;;27.57;23.03
19783;BME280;10051;40.294;-3.754;2022-08-21T02:16:09;94265.88;;;27.16;22.44
19783;BME280;10051;40.294;-3.754;2022-08-21T02:18:35;94149.72;;;26.43;22.87
19783;BME280;10051;40.294;-3.754;2022-08-21T02:21:01;94198.72;;;26.75;22.81
19783;BME280;10051;40.294;-3.754;2022-08-21T02:23:26;94294.06;;;27.33;22.44
19783;BME280;10051;40.294;-3.754;2022-08-21T02:25:52;94248.91;;;27.01;22.84
19783;BME280;10051;40.294;-3.754;2022-08-21T02:28:17;94141.22;;;26.31;23.07
19783;BME280;10051;40.294;-3.754;2022-08-21T02:30:46;94284.41;;;27.25;22.93
19783;BME280;10051;40.294;-3.754;2022-08-21T02:33:12;94290.56;;;27.25;23.06
19783;BME280;10051;40.294;-3.754;2022-08-21T02:35:40;94290.94;;;27.20;23.50
19783;BME280;10051;40.294;-3.754;2022-08-21T02:38:09;94286.72;;;27.23;23.36
19783;BME280;10051;40.294;-3.754;2022-08-21T02:40:37;94290.56;;;27.22;23.58
19783;BME280;10051;40.294;-3.754;2022-08-21T02:43:04;94204.88;;;26.64;24.18
19783;BME280;10051;40.294;-3.754;2022-08-21T02:45:31;94288.25;;;27.20;23.77
19783;BME280;10051;40.294;-3.754;2022-08-21T02:48:00;94253.50;;;26.93;23.78
19783;BME280;10051;40.294;-3.754;2022-08-21T02:50:48;94291.31;;;27.08;23.33
19783;BME280;10051;40.294;-3.754;2022-08-21T02:53:17;94287.06;;;27.10;23.39
19783;BME280;10051;40.294;-3.754;2022-08-21T02:55:47;94246.88;;;26.80;23.44
19783;BME280;10051;40.294;-3.754;2022-08-21T02:58:15;94257.75;;;26.94;23.23
19783;BME280;10051;40.294;-3.754;2022-08-21T03:00:42;94285.13;;;27.07;23.23
19783;BME280;10051;40.294;-3.754;2022-08-21T03:03:08;94222.56;;;26.58;23.56
19783;BME280;10051;40.294;-3.754;2022-08-21T03:05:36;94295.16;;;27.07;23.48
19783;BME280;10051;40.294;-3.754;2022-08-21T03:08:05;94284.69;;;26.87;24.95
19783;BME280;10051;40.294;-3.754;2022-08-21T03:10:35;94281.91;;;26.65;24.90
19783;BME280;10051;40.294;-3.754;2022-08-21T03:13:00;94217.63;;;25.93;25.73
19783;BME280;10051;40.294;-3.754;2022-08-21T03:15:28;94269.44;;;26.35;25.67
19783;BME280;10051;40.294;-3.754;2022-08-21T03:17:55;94291.41;;;26.41;25.13
19783;BME280;10051;40.294;-3.754;2022-08-21T03:20:22;94267.16;;;26.41;24.94
19783;BME280;10051;40.294;-3.754;2022-08-21T03:22:49;94136.94;;;25.48;24.90
19783;BME280;10051;40.294;-3.754;2022-08-21T03:25:15;94285.28;;;26.48;25.71
19783;BME280;10051;40.294;-3.754;2022-08-21T03:27:41;94229.72;;;26.18;25.26
19783;BME280;10051;40.294;-3.754;2022-08-21T03:30:08;94273.31;;;26.38;25.12
19783;BME280;10051;40.294;-3.754;2022-08-21T03:32:33;94217.22;;;25.95;25.17
19783;BME280;10051;40.294;-3.754;2022-08-21T03:35:00;94260.03;;;26.07;25.93
19783;BME280;10051;40.294;-3.754;2022-08-21T03:37:27;94292.28;;;26.00;26.37
19783;BME280;10051;40.294;-3.754;2022-08-21T03:39:52;94292.97;;;25.86;26.49
19783;BME280;10051;40.294;-3.754;2022-08-21T03:42:18;94249.66;;;25.53;26.54
19783;BME280;10051;40.294;-3.754;2022-08-21T03:44:43;94274.06;;;25.34;27.14
19783;BME280;10051;40.294;-3.754;2022-08-21T03:47:09;94298.81;;;25.47;27.35
19783;BME280;10051;40.294;-3.754;2022-08-21T03:49:35;94239.28;;;25.14;27.43
19783;BME280;10051;40.294;-3.754;2022-08-21T03:52:01;94258.75;;;25.42;27.36
19783;BME280;10051;40.294;-3.754;2022-08-21T03:54:26;94282.88;;;25.72;27.08
19783;BME280;10051;40.294;-3.754;2022-08-21T03:56:52;94304.31;;;25.61;27.58
19783;BME280;10051;40.294;-3.754;2022-08-21T03:59:17;94277.03;;;25.21;28.12
19783;BME280;10051;40.294;-3.754;2022-08-21T04:01:58;94211.13;;;24.67;27.86
19783;BME280;10051;40.294;-3.754;2022-08-21T04:04:25;94283.38;;;25.06;27.98
19783;BME280;10051;40.294;-3.754;2022-08-21T04:06:50;94277.16;;;24.98;28.04
19783;BME280;10051;40.294;-3.754;2022-08-21T04:09:17;94319.44;;;25.39;27.76
19783;BME280;10051;40.294;-3.754;2022-08-21T04:11:42;94238.47;;;25.06;27.58
19783;BME280;10051;40.294;-3.754;2022-08-21T04:14:09;94294.09;;;25.40;27.88
19783;BME280;10051;40.294;-3.754;2022-08-21T04:16:34;94109.63;;;24.15;28.18
19783;BME280;10051;40.294;-3.754;2022-08-21T04:19:00;94258.53;;;25.16;28.11
19783;BME280;10051;40.294;-3.754;2022-08-21T04:21:26;94188.25;;;24.80;27.97
19783;BME280;10051;40.294;-3.754;2022-08-21T04:23:54;94253.69;;;25.33;27.68
19783;BME280;10051;40.294;-3.754;2022-08-21T04:26:19;94304.88;;;25.81;27.61
19783;BME280;10051;40.294;-3.754;2022-08-21T04:28:45;94305.97;;;25.77;27.50
19783;BME280;10051;40.294;-3.754;2022-08-21T04:31:13;94304.81;;;25.74;27.39
19783;BME280;10051;40.294;-3.754;2022-08-21T04:33:39;94264.97;;;25.46;27.69
19783;BME280;10051;40.294;-3.754;2022-08-21T04:36:04;94309.25;;;25.52;28.21
19783;BME280;10051;40.294;-3.754;2022-08-21T04:38:30;94177.03;;;24.37;28.48
19783;BME280;10051;40.294;-3.754;2022-08-21T04:40:57;94308.47;;;25.14;28.83
19783;BME280;10051;40.294;-3.754;2022-08-21T04:43:22;94274.19;;;24.73;29.28
19783;BME280;10051;40.294;-3.754;2022-08-21T04:45:49;94208.88;;;24.38;29.20
19783;BME280;10051;40.294;-3.754;2022-08-21T04:48:18;94307.97;;;25.04;29.28
19783;BME280;10051;40.294;-3.754;2022-08-21T04:50:52;94314.75;;;24.91;29.44
19783;BME280;10051;40.294;-3.754;2022-08-21T04:53:26;94311.34;;;24.98;29.68
19783;BME280;10051;40.294;-3.754;2022-08-21T04:55:56;94280.75;;;25.09;29.22
19783;BME280;10051;40.294;-3.754;2022-08-21T04:58:25;94289.72;;;25.24;28.91
19783;BME280;10051;40.294;-3.754;2022-08-21T05:00:53;94249.78;;;24.85;29.14
19783;BME280;10051;40.294;-3.754;2022-08-21T05:03:20;94296.09;;;25.09;29.56
19783;BME280;10051;40.294;-3.754;2022-08-21T05:05:46;94308.56;;;25.24;30.08
19783;BME280;10051;40.294;-3.754;2022-08-21T05:08:14;94274.09;;;25.00;29.35
19783;BME280;10051;40.294;-3.754;2022-08-21T05:10:41;94285.34;;;25.09;29.34
19783;BME280;10051;40.294;-3.754;2022-08-21T05:13:10;94262.19;;;24.67;29.83
19783;BME280;10051;40.294;-3.754;2022-08-21T05:15:38;94183.91;;;24.03;30.00
19783;BME280;10051;40.294;-3.754;2022-08-21T05:18:03;94274.25;;;24.46;30.93
19783;BME280;10051;40.294;-3.754;2022-08-21T05:20:29;94203.97;;;23.86;30.81
19783;BME280;10051;40.294;-3.754;2022-08-21T05:22:55;94315.09;;;24.59;31.06
19783;BME280;10051;40.294;-3.754;2022-08-21T05:25:20;94236.56;;;24.12;30.63
19783;BME280;10051;40.294;-3.754;2022-08-21T05:27:46;94171.25;;;23.50;30.63
19783;BME280;10051;40.294;-3.754;2022-08-21T05:30:13;94310.78;;;24.50;30.34
19783;BME280;10051;40.294;-3.754;2022-08-21T05:32:38;94245.09;;;24.17;29.85
19783;BME280;10051;40.294;-3.754;2022-08-21T05:35:05;94315.88;;;24.59;30.04
19783;BME280;10051;40.294;-3.754;2022-08-21T05:37:32;94278.09;;;24.18;30.00
19783;BME280;10051;40.294;-3.754;2022-08-21T05:39:59;94328.34;;;24.44;29.63
19783;BME280;10051;40.294;-3.754;2022-08-21T05:42:24;94311.22;;;24.26;29.76
19783;BME280;10051;40.294;-3.754;2022-08-21T05:44:50;94239.13;;;23.77;29.71
19783;BME280;10051;40.294;-3.754;2022-08-21T05:47:15;94307.94;;;24.40;29.45
19783;BME280;10051;40.294;-3.754;2022-08-21T05:49:41;94321.97;;;24.56;29.65
19783;BME280;10051;40.294;-3.754;2022-08-21T05:52:06;94215.81;;;24.09;28.82
19783;BME280;10051;40.294;-3.754;2022-08-21T05:54:32;94282.13;;;24.31;29.66
19783;BME280;10051;40.294;-3.754;2022-08-21T05:56:57;94274.28;;;24.19;30.12
19783;BME280;10051;40.294;-3.754;2022-08-21T05:59:23;94325.34;;;24.49;30.09
19783;BME280;10051;40.294;-3.754;2022-08-21T06:01:49;94273.63;;;24.26;30.19
19783;BME280;10051;40.294;-3.754;2022-08-21T06:04:15;94248.44;;;24.11;30.53
19783;BME280;10051;40.294;-3.754;2022-08-21T06:06:42;94303.44;;;24.47;30.63
19783;BME280;10051;40.294;-3.754;2022-08-21T06:09:07;94251.84;;;24.08;31.11
19783;BME280;10051;40.294;-3.754;2022-08-21T06:11:33;94282.75;;;24.21;31.40
19783;BME280;10051;40.294;-3.754;2022-08-21T06:13:59;94287.38;;;24.24;31.46
19783;BME280;10051;40.294;-3.754;2022-08-21T06:16:26;94266.66;;;23.98;31.68
19783;BME280;10051;40.294;-3.754;2022-08-21T06:18:51;94182.56;;;23.36;32.01
19783;BME280;10051;40.294;-3.754;2022-08-21T06:21:18;94239.28;;;23.88;31.22
19783;BME280;10051;40.294;-3.754;2022-08-21T06:23:43;94294.16;;;24.14;32.91
19783;BME280;10051;40.294;-3.754;2022-08-21T06:26:11;94289.63;;;24.18;31.80
19783;BME280;10051;40.294;-3.754;2022-08-21T06:28:37;94342.25;;;24.50;31.65
19783;BME280;10051;40.294;-3.754;2022-08-21T06:31:29;94322.94;;;24.41;31.54
19783;BME280;10051;40.294;-3.754;2022-08-21T06:33:55;94315.94;;;24.36;31.38
19783;BME280;10051;40.294;-3.754;2022-08-21T06:36:21;94330.56;;;24.39;30.98
19783;BME280;10051;40.294;-3.754;2022-08-21T06:38:46;94341.69;;;24.68;29.77
19783;BME280;10051;40.294;-3.754;2022-08-21T06:41:13;94347.22;;;24.78;29.35
19783;BME280;10051;40.294;-3.754;2022-08-21T06:43:38;94304.97;;;24.48;28.99
19783;BME280;10051;40.294;-3.754;2022-08-21T06:46:04;94323.75;;;24.75;28.14
19783;BME280;10051;40.294;-3.754;2022-08-21T06:48:29;94276.28;;;24.56;27.91
19783;BME280;10051;40.294;-3.754;2022-08-21T06:50:59;94356.16;;;25.17;27.47
19783;BME280;10051;40.294;-3.754;2022-08-21T06:53:24;94344.50;;;25.05;28.39
19783;BME280;10051;40.294;-3.754;2022-08-21T06:55:50;94171.50;;;23.95;28.75
19783;BME280;10051;40.294;-3.754;2022-08-21T06:58:16;94365.16;;;25.32;28.28
19783;BME280;10051;40.294;-3.754;2022-08-21T07:00:45;94205.25;;;24.23;27.55
19783;BME280;10051;40.294;-3.754;2022-08-21T07:03:34;94358.69;;;25.40;27.59
19783;BME280;10051;40.294;-3.754;2022-08-21T07:06:01;94364.16;;;25.47;28.34
19783;BME280;10051;40.294;-3.754;2022-08-21T07:08:27;94372.78;;;25.64;27.41
19783;BME280;10051;40.294;-3.754;2022-08-21T07:10:56;94356.78;;;25.78;27.53
19783;BME280;10051;40.294;-3.754;2022-08-21T07:13:22;94245.84;;;24.79;27.50
19783;BME280;10051;40.294;-3.754;2022-08-21T07:15:47;94357.38;;;25.61;28.01
19783;BME280;10051;40.294;-3.754;2022-08-21T07:18:13;94323.59;;;25.29;27.20
19783;BME280;10051;40.294;-3.754;2022-08-21T07:20:39;94356.09;;;25.47;27.94
19783;BME280;10051;40.294;-3.754;2022-08-21T07:23:08;94343.03;;;25.49;27.35
19783;BME280;10051;40.294;-3.754;2022-08-21T07:25:35;94320.25;;;25.39;26.92
19783;BME280;10051;40.294;-3.754;2022-08-21T07:28:01;94323.38;;;25.45;26.23
19783;BME280;10051;40.294;-3.754;2022-08-21T07:30:27;94237.31;;;24.73;27.06
19783;BME280;10051;40.294;-3.754;2022-08-21T07:32:53;94293.09;;;25.14;26.52
19783;BME280;10051;40.294;-3.754;2022-08-21T07:35:19;94369.72;;;25.65;26.30
19783;BME280;10051;40.294;-3.754;2022-08-21T07:37:45;94342.78;;;25.62;26.23
19783;BME280;10051;40.294;-3.754;2022-08-21T07:40:12;94306.75;;;25.36;26.62
19783;BME280;10051;40.294;-3.754;2022-08-21T07:42:45;94255.22;;;24.92;26.95
19783;BME280;10051;40.294;-3.754;2022-08-21T07:45:13;94358.63;;;25.71;26.52
19783;BME280;10051;40.294;-3.754;2022-08-21T07:47:39;94226.78;;;24.91;26.97
19783;BME280;10051;40.294;-3.754;2022-08-21T07:50:06;94228.53;;;25.14;26.71
19783;BME280;10051;40.294;-3.754;2022-08-21T07:52:32;94323.75;;;25.89;26.13
19783;BME280;10051;40.294;-3.754;2022-08-21T07:54:58;94382.66;;;26.39;25.72
19783;BME280;10051;40.294;-3.754;2022-08-21T07:57:24;94365.84;;;26.60;25.27
19783;BME280;10051;40.294;-3.754;2022-08-21T07:59:50;94320.28;;;26.40;24.83
19783;BME280;10051;40.294;-3.754;2022-08-21T08:02:27;94335.03;;;26.65;25.28
19783;BME280;10051;40.294;-3.754;2022-08-21T08:04:53;94326.59;;;26.73;24.78
19783;BME280;10051;40.294;-3.754;2022-08-21T08:07:19;94376.16;;;27.17;24.69
19783;BME280;10051;40.294;-3.754;2022-08-21T08:09:45;94331.34;;;26.91;25.05
19783;BME280;10051;40.294;-3.754;2022-08-21T08:12:11;94369.97;;;27.10;24.89
19783;BME280;10051;40.294;-3.754;2022-08-21T08:14:37;94276.47;;;26.58;24.24
19783;BME280;10051;40.294;-3.754;2022-08-21T08:17:03;94327.56;;;27.07;24.15
19783;BME280;10051;40.294;-3.754;2022-08-21T08:19:29;94357.31;;;27.39;24.43
19783;BME280;10051;40.294;-3.754;2022-08-21T08:21:54;94302.88;;;27.08;24.43
19783;BME280;10051;40.294;-3.754;2022-08-21T08:24:20;94354.69;;;27.68;24.63
19783;BME280;10051;40.294;-3.754;2022-08-21T08:26:46;94357.81;;;27.88;23.75
19783;BME280;10051;40.294;-3.754;2022-08-21T08:29:12;94352.38;;;27.92;23.42
19783;BME280;10051;40.294;-3.754;2022-08-21T08:31:37;94306.84;;;27.61;23.46
19783;BME280;10051;40.294;-3.754;2022-08-21T08:34:03;94235.06;;;27.31;23.69
19783;BME280;10051;40.294;-3.754;2022-08-21T08:36:34;94304.53;;;27.85;23.23
19783;BME280;10051;40.294;-3.754;2022-08-21T08:39:01;94336.19;;;28.25;23.37
19783;BME280;10051;40.294;-3.754;2022-08-21T08:41:27;94268.25;;;28.01;23.16
19783;BME280;10051;40.294;-3.754;2022-08-21T08:43:59;94274.41;;;28.27;23.17
19783;BME280;10051;40.294;-3.754;2022-08-21T08:46:39;94349.50;;;29.04;22.98
19783;BME280;10051;40.294;-3.754;2022-08-21T08:49:19;94350.56;;;29.32;23.05
19783;BME280;10051;40.294;-3.754;2022-08-21T08:51:53;94325.06;;;29.26;22.69
19783;BME280;10051;40.294;-3.754;2022-08-21T08:54:45;94332.66;;;29.53;22.41
19783;BME280;10051;40.294;-3.754;2022-08-21T08:57:16;94277.91;;;29.16;22.34
19783;BME280;10051;40.294;-3.754;2022-08-21T08:59:52;94337.19;;;29.67;22.45
19783;BME280;10051;40.294;-3.754;2022-08-21T09:02:20;94298.22;;;29.53;22.59
19783;BME280;10051;40.294;-3.754;2022-08-21T09:04:49;94294.63;;;29.67;21.90
19783;BME280;10051;40.294;-3.754;2022-08-21T09:07:44;94359.97;;;30.30;22.29
19783;BME280;10051;40.294;-3.754;2022-08-21T09:10:38;94358.72;;;30.38;22.49
19783;BME280;10051;40.294;-3.754;2022-08-21T09:18:42;94365.91;;;30.59;21.86
19783;BME280;10051;40.294;-3.754;2022-08-21T09:24:26;94361.25;;;30.94;21.65
19783;BME280;10051;40.294;-3.754;2022-08-21T09:27:06;94366.88;;;31.11;22.20
19783;BME280;10051;40.294;-3.754;2022-08-21T09:29:35;94323.75;;;30.85;22.72
19783;BME280;10051;40.294;-3.754;2022-08-21T09:32:01;94340.59;;;31.04;22.50
19783;BME280;10051;40.294;-3.754;2022-08-21T09:34:29;94325.53;;;30.99;21.72
19783;BME280;10051;40.294;-3.754;2022-08-21T09:36:57;94362.28;;;31.39;21.58
19783;BME280;10051;40.294;-3.754;2022-08-21T09:39:28;94300.91;;;31.14;21.29
19783;BME280;10051;40.294;-3.754;2022-08-21T09:41:59;94367.00;;;31.62;21.00
19783;BME280;10051;40.294;-3.754;2022-08-21T09:44:31;94158.41;;;30.40;21.28
19783;BME280;10051;40.294;-3.754;2022-08-21T09:46:58;94354.78;;;31.78;20.69
19783;BME280;10051;40.294;-3.754;2022-08-21T09:49:28;94364.31;;;31.89;20.82
19783;BME280;10051;40.294;-3.754;2022-08-21T09:51:55;94297.91;;;31.63;20.20
19783;BME280;10051;40.294;-3.754;2022-08-21T09:54:28;94302.41;;;31.77;21.08
19783;BME280;10051;40.294;-3.754;2022-08-21T09:56:59;94300.31;;;31.85;20.27
19783;BME280;10051;40.294;-3.754;2022-08-21T09:59:46;94307.59;;;31.92;21.01
19783;BME280;10051;40.294;-3.754;2022-08-21T10:02:31;94333.31;;;32.35;21.03
19783;BME280;10051;40.294;-3.754;2022-08-21T10:05:20;94343.25;;;32.45;20.57
19783;BME280;10051;40.294;-3.754;2022-08-21T10:07:48;94341.44;;;32.58;20.38
19783;BME280;10051;40.294;-3.754;2022-08-21T10:12:53;94248.94;;;32.14;20.26
19783;BME280;10051;40.294;-3.754;2022-08-21T10:15:36;94278.84;;;32.38;21.53
19783;BME280;10051;40.294;-3.754;2022-08-21T10:21:15;94268.44;;;32.53;19.96
19783;BME280;10051;40.294;-3.754;2022-08-21T10:34:33;94276.75;;;33.06;21.28
19783;BME280;10051;40.294;-3.754;2022-08-21T10:40:07;94306.13;;;33.52;20.55
19783;BME280;10051;40.294;-3.754;2022-08-21T10:47:48;94303.34;;;34.05;19.69
19783;BME280;10051;40.294;-3.754;2022-08-21T10:50:19;94295.56;;;34.20;19.33
19783;BME280;10051;40.294;-3.754;2022-08-21T10:56:10;94282.47;;;34.28;19.64
19783;BME280;10051;40.294;-3.754;2022-08-21T10:58:41;94248.16;;;34.14;19.31
19783;BME280;10051;40.294;-3.754;2022-08-21T11:01:13;94263.59;;;34.21;18.62
19783;BME280;10051;40.294;-3.754;2022-08-21T11:06:53;94189.94;;;33.91;18.88
19783;BME280;10051;40.294;-3.754;2022-08-21T11:09:25;94256.53;;;34.53;18.56
19783;BME280;10051;40.294;-3.754;2022-08-21T11:12:41;94266.94;;;34.71;18.20
19783;BME280;10051;40.294;-3.754;2022-08-21T11:18:43;94231.88;;;34.69;18.02
19783;BME280;10051;40.294;-3.754;2022-08-21T11:21:02;94233.53;;;34.80;17.22
19783;BME280;10051;40.294;-3.754;2022-08-21T11:23:42;94260.91;;;35.06;17.92
19783;BME280;10051;40.294;-3.754;2022-08-21T11:26:24;94238.81;;;35.00;17.98
19783;BME280;10051;40.294;-3.754;2022-08-21T11:29:00;94262.00;;;35.21;17.96
19783;BME280;10051;40.294;-3.754;2022-08-21T11:37:11;94241.69;;;35.48;16.74
19783;BME280;10051;40.294;-3.754;2022-08-21T11:42:27;94245.16;;;35.62;16.63
19783;BME280;10051;40.294;-3.754;2022-08-21T11:45:31;94236.84;;;35.65;16.48
19783;BME280;10051;40.294;-3.754;2022-08-21T11:50:37;94188.94;;;35.61;16.01
19783;BME280;10051;40.294;-3.754;2022-08-21T11:53:14;94223.94;;;35.66;16.13
19783;BME280;10051;40.294;-3.754;2022-08-21T11:56:06;94154.66;;;35.34;14.73
19783;BME280;10051;40.294;-3.754;2022-08-21T11:58:40;94186.56;;;35.50;15.29
19783;BME280;10051;40.294;-3.754;2022-08-21T12:01:15;94193.53;;;35.77;15.41
19783;BME280;10051;40.294;-3.754;2022-08-21T12:03:54;94183.78;;;35.76;15.31
19783;BME280;10051;40.294;-3.754;2022-08-21T12:06:36;94194.78;;;35.98;14.95
19783;BME280;10051;40.294;-3.754;2022-08-21T12:09:08;94189.94;;;36.02;13.89
19783;BME280;10051;40.294;-3.754;2022-08-21T12:11:47;94187.84;;;36.06;14.37
19783;BME280;10051;40.294;-3.754;2022-08-21T12:14:16;94200.53;;;36.13;14.21
19783;BME280;10051;40.294;-3.754;2022-08-21T12:16:44;94193.13;;;36.23;14.46
19783;BME280;10051;40.294;-3.754;2022-08-21T12:21:52;94159.91;;;36.11;13.82
19783;BME280;10051;40.294;-3.754;2022-08-21T12:24:32;94196.13;;;36.38;13.77
19783;BME280;10051;40.294;-3.754;2022-08-21T12:27:13;94198.16;;;36.46;13.83
19783;BME280;10051;40.294;-3.754;2022-08-21T12:29:45;94142.50;;;36.18;13.31
19783;BME280;10051;40.294;-3.754;2022-08-21T12:34:50;94174.47;;;36.53;13.91
19783;BME280;10051;40.294;-3.754;2022-08-21T12:40:23;94179.44;;;36.67;13.60
19783;BME280;10051;40.294;-3.754;2022-08-21T12:42:53;94088.16;;;36.07;13.45
19783;BME280;10051;40.294;-3.754;2022-08-21T12:45:30;94169.88;;;36.72;13.37
19783;BME280;10051;40.294;-3.754;2022-08-21T12:47:58;94166.22;;;36.75;12.58
19783;BME280;10051;40.294;-3.754;2022-08-21T12:50:38;94121.56;;;36.56;12.89
19783;BME280;10051;40.294;-3.754;2022-08-21T12:53:10;94164.00;;;36.92;13.00
19783;BME280;10051;40.294;-3.754;2022-08-21T12:55:41;94157.97;;;36.97;12.56
19783;BME280;10051;40.294;-3.754;2022-08-21T12:58:19;94160.31;;;37.08;12.19
19783;BME280;10051;40.294;-3.754;2022-08-21T13:00:51;94158.78;;;37.07;12.56
19783;BME280;10051;40.294;-3.754;2022-08-21T13:03:17;94140.56;;;36.91;12.54
19783;BME280;10051;40.294;-3.754;2022-08-21T13:05:43;94160.78;;;37.16;12.40
19783;BME280;10051;40.294;-3.754;2022-08-21T13:08:10;94155.94;;;37.20;12.50
19783;BME280;10051;40.294;-3.754;2022-08-21T13:10:39;94150.75;;;37.22;12.40
19783;BME280;10051;40.294;-3.754;2022-08-21T13:13:09;94054.22;;;36.58;12.66
19783;BME280;10051;40.294;-3.754;2022-08-21T13:15:39;94127.75;;;37.19;11.93
19783;BME280;10051;40.294;-3.754;2022-08-21T13:18:06;94103.22;;;37.07;12.00
19783;BME280;10051;40.294;-3.754;2022-08-21T13:20:38;94133.09;;;37.32;12.13
19783;BME280;10051;40.294;-3.754;2022-08-21T13:23:23;94133.13;;;37.42;12.54
19783;BME280;10051;40.294;-3.754;2022-08-21T13:25:50;94139.25;;;37.46;12.36
19783;BME280;10051;40.294;-3.754;2022-08-21T13:28:15;94118.63;;;37.32;11.41
19783;BME280;10051;40.294;-3.754;2022-08-21T13:30:52;94119.38;;;37.32;11.41
19783;BME280;10051;40.294;-3.754;2022-08-21T13:33:24;94073.53;;;36.96;12.13
19783;BME280;10051;40.294;-3.754;2022-08-21T13:35:57;94079.75;;;36.96;12.13
19783;BME280;10051;40.294;-3.754;2022-08-21T13:38:35;94068.19;;;37.01;12.39
19783;BME280;10051;40.294;-3.754;2022-08-21T13:43:45;94040.13;;;36.88;12.43
19783;BME280;10051;40.294;-3.754;2022-08-21T13:46:12;94007.69;;;36.68;12.43
19783;BME280;10051;40.294;-3.754;2022-08-21T13:48:40;94049.75;;;36.93;12.90
19783;BME280;10051;40.294;-3.754;2022-08-21T13:51:07;94051.91;;;36.98;12.86
19783;BME280;10051;40.294;-3.754;2022-08-21T13:53:36;94043.03;;;36.84;12.49
19783;BME280;10051;40.294;-3.754;2022-08-21T13:56:04;94093.81;;;37.26;12.32
19783;BME280;10051;40.294;-3.754;2022-08-21T13:58:41;94082.88;;;37.26;12.65
19783;BME280;10051;40.294;-3.754;2022-08-21T14:01:27;93965.47;;;36.37;12.48
19783;BME280;10051;40.294;-3.754;2022-08-21T14:03:56;94032.53;;;36.83;12.57
19783;BME280;10051;40.294;-3.754;2022-08-21T14:06:25;94018.22;;;36.79;12.78